sensor_id;sensor_type;location;lat;lon;timestamp;P1;durP1;ratioP1;P2;durP2;ratioP2
54909;SDS011;63189;51.240;9.964;2024-03-02T00:01:06;42.30;;;24.15;;
54909;SDS011;63189;51.240;9.964;2024-03-02T00:03:32;44.03;;;23.33;;
54909;SDS011;63189;51.240;9.964;2024-03-02T00:05:58;48.83;;;25.52;;
54909;SDS011;63189;51.240;9.964;2024-03-02T00:08:24;41.95;;;23.92;;
54909;SDS011;63189;51.240;9.964;2024-03-02T00:10:50;41.35;;;23.15;;
54909;SDS011;63189;51.240;9.964;2024-03-02T00:13:16;44.75;;;25.05;;
54909;SDS011;63189;51.240;9.964;2024-03-02T00:15:48;38.28;;;22.90;;
54909;SDS011;63189;51.240;9.964;2024-03-02T00:18:21;39.22;;;23.17;;
54909;SDS011;63189;51.240;9.964;2024-03-02T00:20:54;39.85;;;22.35;;
54909;SDS011;63189;51.240;9.964;2024-03-02T00:23:21;40.97;;;23.73;;
54909;SDS011;63189;51.240;9.964;2024-03-02T00:25:48;41.15;;;23.73;;
54909;SDS011;63189;51.240;9.964;2024-03-02T00:28:34;44.05;;;24.33;;
54909;SDS011;63189;51.240;9.964;2024-03-02T00:31:07;40.35;;;23.83;;
54909;SDS011;63189;51.240;9.964;2024-03-02T00:33:37;44.75;;;23.58;;
54909;SDS011;63189;51.240;9.964;2024-03-02T00:36:06;39.35;;;21.50;;
54909;SDS011;63189;51.240;9.964;2024-03-02T00:38:32;38.65;;;22.63;;
54909;SDS011;63189;51.240;9.964;2024-03-02T00:40:59;38.30;;;22.75;;
54909;SDS011;63189;51.240;9.964;2024-03-02T00:46:36;34.53;;;22.05;;
54909;SDS011;63189;51.240;9.964;2024-03-02T00:49:20;39.30;;;23.08;;
54909;SDS011;63189;51.240;9.964;2024-03-02T00:51:47;43.33;;;25.23;;
54909;SDS011;63189;51.240;9.964;2024-03-02T00:54:14;34.08;;;20.58;;
54909;SDS011;63189;51.240;9.964;2024-03-02T00:56:43;38.15;;;21.65;;
54909;SDS011;63189;51.240;9.964;2024-03-02T00:59:09;33.78;;;20.48;;
54909;SDS011;63189;51.240;9.964;2024-03-02T01:01:35;38.70;;;22.30;;
54909;SDS011;63189;51.240;9.964;2024-03-02T01:04:01;38.15;;;21.85;;
54909;SDS011;63189;51.240;9.964;2024-03-02T01:06:26;44.55;;;23.80;;
54909;SDS011;63189;51.240;9.964;2024-03-02T01:08:52;38.63;;;22.75;;
54909;SDS011;63189;51.240;9.964;2024-03-02T01:11:18;38.80;;;21.40;;
54909;SDS011;63189;51.240;9.964;2024-03-02T01:13:43;35.97;;;22.65;;
54909;SDS011;63189;51.240;9.964;2024-03-02T01:16:09;36.17;;;22.42;;
54909;SDS011;63189;51.240;9.964;2024-03-02T01:18:35;37.67;;;22.10;;
54909;SDS011;63189;51.240;9.964;2024-03-02T01:21:00;38.92;;;22.73;;
54909;SDS011;63189;51.240;9.964;2024-03-02T01:23:26;38.40;;;23.08;;
54909;SDS011;63189;51.240;9.964;2024-03-02T01:25:52;36.63;;;20.95;;
54909;SDS011;63189;51.240;9.964;2024-03-02T01:28:17;34.55;;;21.40;;
54909;SDS011;63189;51.240;9.964;2024-03-02T01:30:44;35.30;;;22.17;;
54909;SDS011;63189;51.240;9.964;2024-03-02T01:33:09;32.15;;;18.88;;
54909;SDS011;63189;51.240;9.964;2024-03-02T01:35:35;36.70;;;21.73;;
54909;SDS011;63189;51.240;9.964;2024-03-02T01:38:01;36.67;;;21.65;;
54909;SDS011;63189;51.240;9.964;2024-03-02T01:40:26;44.15;;;25.20;;
54909;SDS011;63189;51.240;9.964;2024-03-02T01:42:53;36.88;;;21.35;;
54909;SDS011;63189;51.240;9.964;2024-03-02T01:45:19;37.22;;;22.08;;
54909;SDS011;63189;51.240;9.964;2024-03-02T01:47:45;37.35;;;21.67;;
54909;SDS011;63189;51.240;9.964;2024-03-02T01:50:13;36.15;;;21.00;;
54909;SDS011;63189;51.240;9.964;2024-03-02T01:52:39;36.78;;;21.20;;
54909;SDS011;63189;51.240;9.964;2024-03-02T01:55:05;38.40;;;22.58;;
54909;SDS011;63189;51.240;9.964;2024-03-02T01:57:31;33.47;;;20.60;;
54909;SDS011;63189;51.240;9.964;2024-03-02T01:59:56;37.70;;;22.08;;
54909;SDS011;63189;51.240;9.964;2024-03-02T02:02:22;42.30;;;24.42;;
54909;SDS011;63189;51.240;9.964;2024-03-02T02:04:48;36.85;;;22.20;;
54909;SDS011;63189;51.240;9.964;2024-03-02T02:07:13;38.90;;;24.77;;
54909;SDS011;63189;51.240;9.964;2024-03-02T02:09:40;38.70;;;22.85;;
54909;SDS011;63189;51.240;9.964;2024-03-02T02:12:09;38.42;;;22.90;;
54909;SDS011;63189;51.240;9.964;2024-03-02T02:14:35;39.00;;;22.77;;
54909;SDS011;63189;51.240;9.964;2024-03-02T02:17:01;35.08;;;21.17;;
54909;SDS011;63189;51.240;9.964;2024-03-02T02:19:27;38.50;;;22.40;;
54909;SDS011;63189;51.240;9.964;2024-03-02T02:21:52;35.70;;;21.52;;
54909;SDS011;63189;51.240;9.964;2024-03-02T02:24:17;41.88;;;24.60;;
54909;SDS011;63189;51.240;9.964;2024-03-02T02:26:42;38.55;;;23.77;;
54909;SDS011;63189;51.240;9.964;2024-03-02T02:29:08;40.08;;;24.13;;
54909;SDS011;63189;51.240;9.964;2024-03-02T02:31:37;42.10;;;23.63;;
54909;SDS011;63189;51.240;9.964;2024-03-02T02:34:05;37.80;;;23.20;;
54909;SDS011;63189;51.240;9.964;2024-03-02T02:36:34;38.72;;;23.50;;
54909;SDS011;63189;51.240;9.964;2024-03-02T02:39:03;37.17;;;23.05;;
54909;SDS011;63189;51.240;9.964;2024-03-02T02:41:29;38.30;;;24.25;;
54909;SDS011;63189;51.240;9.964;2024-03-02T02:43:55;37.22;;;22.75;;
54909;SDS011;63189;51.240;9.964;2024-03-02T02:46:21;42.72;;;26.27;;
54909;SDS011;63189;51.240;9.964;2024-03-02T02:48:46;40.08;;;23.75;;
54909;SDS011;63189;51.240;9.964;2024-03-02T02:51:11;37.00;;;23.08;;
54909;SDS011;63189;51.240;9.964;2024-03-02T02:53:37;36.10;;;22.33;;
54909;SDS011;63189;51.240;9.964;2024-03-02T02:56:05;42.33;;;24.55;;
54909;SDS011;63189;51.240;9.964;2024-03-02T02:58:31;36.72;;;21.75;;
54909;SDS011;63189;51.240;9.964;2024-03-02T03:00:56;41.05;;;24.77;;
54909;SDS011;63189;51.240;9.964;2024-03-02T03:03:21;39.75;;;22.08;;
54909;SDS011;63189;51.240;9.964;2024-03-02T03:05:47;35.72;;;22.58;;
54909;SDS011;63189;51.240;9.964;2024-03-02T03:08:13;42.42;;;23.85;;
54909;SDS011;63189;51.240;9.964;2024-03-02T03:10:38;38.60;;;22.17;;
54909;SDS011;63189;51.240;9.964;2024-03-02T03:13:05;38.95;;;23.63;;
54909;SDS011;63189;51.240;9.964;2024-03-02T03:15:34;35.70;;;22.40;;
54909;SDS011;63189;51.240;9.964;2024-03-02T03:18:00;40.08;;;24.25;;
54909;SDS011;63189;51.240;9.964;2024-03-02T03:20:25;40.03;;;22.98;;
54909;SDS011;63189;51.240;9.964;2024-03-02T03:22:50;37.70;;;22.67;;
54909;SDS011;63189;51.240;9.964;2024-03-02T03:25:16;39.95;;;24.33;;
54909;SDS011;63189;51.240;9.964;2024-03-02T03:27:41;33.88;;;20.80;;
54909;SDS011;63189;51.240;9.964;2024-03-02T03:30:06;38.05;;;23.35;;
54909;SDS011;63189;51.240;9.964;2024-03-02T03:32:32;42.35;;;23.50;;
54909;SDS011;63189;51.240;9.964;2024-03-02T03:34:57;37.58;;;23.27;;
54909;SDS011;63189;51.240;9.964;2024-03-02T03:37:23;37.45;;;21.98;;
54909;SDS011;63189;51.240;9.964;2024-03-02T03:39:49;39.28;;;23.65;;
54909;SDS011;63189;51.240;9.964;2024-03-02T03:42:14;38.38;;;23.30;;
54909;SDS011;63189;51.240;9.964;2024-03-02T03:44:40;39.38;;;23.23;;
54909;SDS011;63189;51.240;9.964;2024-03-02T03:47:06;34.70;;;20.88;;
54909;SDS011;63189;51.240;9.964;2024-03-02T03:49:32;36.92;;;22.17;;
54909;SDS011;63189;51.240;9.964;2024-03-02T03:51:57;41.70;;;24.33;;
54909;SDS011;63189;51.240;9.964;2024-03-02T03:54:22;44.92;;;24.73;;
54909;SDS011;63189;51.240;9.964;2024-03-02T03:56:48;40.08;;;22.90;;
54909;SDS011;63189;51.240;9.964;2024-03-02T03:59:13;39.22;;;24.17;;
54909;SDS011;63189;51.240;9.964;2024-03-02T04:01:39;41.42;;;24.85;;
54909;SDS011;63189;51.240;9.964;2024-03-02T04:04:04;46.70;;;26.80;;
54909;SDS011;63189;51.240;9.964;2024-03-02T04:06:29;40.17;;;24.40;;
54909;SDS011;63189;51.240;9.964;2024-03-02T04:08:55;41.63;;;24.70;;
54909;SDS011;63189;51.240;9.964;2024-03-02T04:11:22;38.58;;;23.02;;
54909;SDS011;63189;51.240;9.964;2024-03-02T04:13:48;43.78;;;25.67;;
54909;SDS011;63189;51.240;9.964;2024-03-02T04:16:13;40.45;;;24.27;;
54909;SDS011;63189;51.240;9.964;2024-03-02T04:18:39;40.38;;;23.02;;
54909;SDS011;63189;51.240;9.964;2024-03-02T04:21:05;39.40;;;23.88;;
54909;SDS011;63189;51.240;9.964;2024-03-02T04:23:30;43.03;;;24.48;;
54909;SDS011;63189;51.240;9.964;2024-03-02T04:25:55;34.22;;;21.85;;
54909;SDS011;63189;51.240;9.964;2024-03-02T04:28:21;38.63;;;23.92;;
54909;SDS011;63189;51.240;9.964;2024-03-02T04:30:46;39.70;;;22.55;;
54909;SDS011;63189;51.240;9.964;2024-03-02T04:33:11;32.95;;;20.00;;
54909;SDS011;63189;51.240;9.964;2024-03-02T04:35:36;46.72;;;25.98;;
54909;SDS011;63189;51.240;9.964;2024-03-02T04:38:02;45.45;;;24.92;;
54909;SDS011;63189;51.240;9.964;2024-03-02T04:40:27;42.65;;;24.55;;
54909;SDS011;63189;51.240;9.964;2024-03-02T04:42:53;39.70;;;23.67;;
54909;SDS011;63189;51.240;9.964;2024-03-02T04:45:19;43.33;;;21.77;;
54909;SDS011;63189;51.240;9.964;2024-03-02T04:47:44;44.53;;;23.90;;
54909;SDS011;63189;51.240;9.964;2024-03-02T04:50:09;34.95;;;22.17;;
54909;SDS011;63189;51.240;9.964;2024-03-02T04:52:35;37.88;;;22.50;;
54909;SDS011;63189;51.240;9.964;2024-03-02T04:55:00;38.33;;;23.45;;
54909;SDS011;63189;51.240;9.964;2024-03-02T04:57:42;43.47;;;24.67;;
54909;SDS011;63189;51.240;9.964;2024-03-02T05:00:08;44.78;;;25.80;;
54909;SDS011;63189;51.240;9.964;2024-03-02T05:02:34;43.65;;;24.80;;
54909;SDS011;63189;51.240;9.964;2024-03-02T05:04:59;39.90;;;24.00;;
54909;SDS011;63189;51.240;9.964;2024-03-02T05:07:25;41.95;;;24.20;;
54909;SDS011;63189;51.240;9.964;2024-03-02T05:09:50;39.15;;;22.83;;
54909;SDS011;63189;51.240;9.964;2024-03-02T05:12:15;44.30;;;25.42;;
54909;SDS011;63189;51.240;9.964;2024-03-02T05:15:10;43.22;;;24.75;;
54909;SDS011;63189;51.240;9.964;2024-03-02T05:17:37;37.92;;;22.60;;
54909;SDS011;63189;51.240;9.964;2024-03-02T05:20:03;41.25;;;23.85;;
54909;SDS011;63189;51.240;9.964;2024-03-02T05:22:30;46.05;;;25.40;;
54909;SDS011;63189;51.240;9.964;2024-03-02T05:24:55;45.42;;;25.80;;
54909;SDS011;63189;51.240;9.964;2024-03-02T05:27:21;40.17;;;24.55;;
54909;SDS011;63189;51.240;9.964;2024-03-02T05:29:46;45.58;;;25.88;;
54909;SDS011;63189;51.240;9.964;2024-03-02T05:32:12;54.60;;;28.35;;
54909;SDS011;63189;51.240;9.964;2024-03-02T05:34:37;43.35;;;26.08;;
54909;SDS011;63189;51.240;9.964;2024-03-02T05:37:02;50.92;;;27.40;;
54909;SDS011;63189;51.240;9.964;2024-03-02T05:39:28;45.40;;;24.60;;
54909;SDS011;63189;51.240;9.964;2024-03-02T05:41:53;46.90;;;25.65;;
54909;SDS011;63189;51.240;9.964;2024-03-02T05:44:18;44.65;;;24.98;;
54909;SDS011;63189;51.240;9.964;2024-03-02T05:46:44;42.35;;;23.85;;
54909;SDS011;63189;51.240;9.964;2024-03-02T05:49:10;39.08;;;22.95;;
54909;SDS011;63189;51.240;9.964;2024-03-02T05:51:38;40.13;;;24.27;;
54909;SDS011;63189;51.240;9.964;2024-03-02T05:54:03;45.22;;;24.25;;
54909;SDS011;63189;51.240;9.964;2024-03-02T05:56:29;44.00;;;24.70;;
54909;SDS011;63189;51.240;9.964;2024-03-02T05:58:54;42.95;;;24.15;;
54909;SDS011;63189;51.240;9.964;2024-03-02T06:01:37;38.25;;;21.95;;
54909;SDS011;63189;51.240;9.964;2024-03-02T06:04:03;42.55;;;24.63;;
54909;SDS011;63189;51.240;9.964;2024-03-02T06:06:28;49.58;;;26.83;;
54909;SDS011;63189;51.240;9.964;2024-03-02T06:08:53;43.35;;;25.15;;
54909;SDS011;63189;51.240;9.964;2024-03-02T06:11:19;44.42;;;24.73;;
54909;SDS011;63189;51.240;9.964;2024-03-02T06:13:44;43.15;;;25.08;;
54909;SDS011;63189;51.240;9.964;2024-03-02T06:16:10;44.47;;;24.33;;
54909;SDS011;63189;51.240;9.964;2024-03-02T06:18:35;45.22;;;25.30;;
54909;SDS011;63189;51.240;9.964;2024-03-02T06:21:01;47.40;;;26.50;;
54909;SDS011;63189;51.240;9.964;2024-03-02T06:23:27;47.08;;;25.92;;
54909;SDS011;63189;51.240;9.964;2024-03-02T06:25:52;49.17;;;26.50;;
54909;SDS011;63189;51.240;9.964;2024-03-02T06:28:18;44.97;;;25.60;;
54909;SDS011;63189;51.240;9.964;2024-03-02T06:30:43;48.38;;;25.65;;
54909;SDS011;63189;51.240;9.964;2024-03-02T06:33:09;48.22;;;26.40;;
54909;SDS011;63189;51.240;9.964;2024-03-02T06:35:34;53.50;;;28.17;;
54909;SDS011;63189;51.240;9.964;2024-03-02T06:38:00;47.75;;;26.20;;
54909;SDS011;63189;51.240;9.964;2024-03-02T06:40:26;49.17;;;26.88;;
54909;SDS011;63189;51.240;9.964;2024-03-02T06:42:51;55.85;;;30.35;;
54909;SDS011;63189;51.240;9.964;2024-03-02T06:45:16;56.22;;;29.33;;
54909;SDS011;63189;51.240;9.964;2024-03-02T06:47:42;47.40;;;26.60;;
54909;SDS011;63189;51.240;9.964;2024-03-02T06:50:07;48.85;;;28.23;;
54909;SDS011;63189;51.240;9.964;2024-03-02T06:52:34;53.58;;;27.80;;
54909;SDS011;63189;51.240;9.964;2024-03-02T06:54:59;50.45;;;28.45;;
54909;SDS011;63189;51.240;9.964;2024-03-02T06:57:25;52.58;;;28.27;;
54909;SDS011;63189;51.240;9.964;2024-03-02T06:59:51;52.10;;;28.75;;
54909;SDS011;63189;51.240;9.964;2024-03-02T07:02:19;55.83;;;29.85;;
54909;SDS011;63189;51.240;9.964;2024-03-02T07:04:45;57.35;;;29.58;;
54909;SDS011;63189;51.240;9.964;2024-03-02T07:07:10;57.40;;;30.55;;
54909;SDS011;63189;51.240;9.964;2024-03-02T07:09:36;50.15;;;28.27;;
54909;SDS011;63189;51.240;9.964;2024-03-02T07:12:01;52.83;;;28.48;;
54909;SDS011;63189;51.240;9.964;2024-03-02T07:14:27;46.60;;;26.10;;
54909;SDS011;63189;51.240;9.964;2024-03-02T07:17:12;56.22;;;30.35;;
54909;SDS011;63189;51.240;9.964;2024-03-02T07:19:38;52.30;;;28.45;;
54909;SDS011;63189;51.240;9.964;2024-03-02T07:22:05;49.90;;;27.17;;
54909;SDS011;63189;51.240;9.964;2024-03-02T07:24:32;52.00;;;28.13;;
54909;SDS011;63189;51.240;9.964;2024-03-02T07:26:57;53.15;;;28.48;;
54909;SDS011;63189;51.240;9.964;2024-03-02T07:29:22;50.17;;;28.80;;
54909;SDS011;63189;51.240;9.964;2024-03-02T07:31:47;53.33;;;28.13;;
54909;SDS011;63189;51.240;9.964;2024-03-02T07:34:13;47.88;;;27.33;;
54909;SDS011;63189;51.240;9.964;2024-03-02T07:36:40;42.78;;;25.58;;
54909;SDS011;63189;51.240;9.964;2024-03-02T07:39:06;46.33;;;26.83;;
54909;SDS011;63189;51.240;9.964;2024-03-02T07:41:32;48.22;;;27.00;;
54909;SDS011;63189;51.240;9.964;2024-03-02T07:43:57;45.33;;;25.90;;
54909;SDS011;63189;51.240;9.964;2024-03-02T07:46:23;43.92;;;24.13;;
54909;SDS011;63189;51.240;9.964;2024-03-02T07:48:49;43.20;;;25.27;;
54909;SDS011;63189;51.240;9.964;2024-03-02T07:51:16;42.20;;;24.95;;
54909;SDS011;63189;51.240;9.964;2024-03-02T07:53:42;45.78;;;25.33;;
54909;SDS011;63189;51.240;9.964;2024-03-02T07:56:07;42.38;;;24.58;;
54909;SDS011;63189;51.240;9.964;2024-03-02T07:58:32;44.38;;;25.33;;
54909;SDS011;63189;51.240;9.964;2024-03-02T08:00:58;43.40;;;25.30;;
54909;SDS011;63189;51.240;9.964;2024-03-02T08:03:26;43.13;;;24.13;;
54909;SDS011;63189;51.240;9.964;2024-03-02T08:05:51;39.55;;;23.98;;
54909;SDS011;63189;51.240;9.964;2024-03-02T08:08:17;47.95;;;25.98;;
54909;SDS011;63189;51.240;9.964;2024-03-02T08:10:42;38.88;;;23.25;;
54909;SDS011;63189;51.240;9.964;2024-03-02T08:13:07;35.50;;;21.48;;
54909;SDS011;63189;51.240;9.964;2024-03-02T08:15:33;35.13;;;21.85;;
54909;SDS011;63189;51.240;9.964;2024-03-02T08:17:58;41.70;;;24.20;;
54909;SDS011;63189;51.240;9.964;2024-03-02T08:20:23;37.90;;;22.98;;
54909;SDS011;63189;51.240;9.964;2024-03-02T08:22:49;40.88;;;23.30;;
54909;SDS011;63189;51.240;9.964;2024-03-02T08:25:14;35.80;;;22.15;;
54909;SDS011;63189;51.240;9.964;2024-03-02T08:27:40;35.28;;;21.38;;
54909;SDS011;63189;51.240;9.964;2024-03-02T08:30:06;34.70;;;20.70;;
54909;SDS011;63189;51.240;9.964;2024-03-02T08:32:33;36.42;;;21.40;;
54909;SDS011;63189;51.240;9.964;2024-03-02T08:34:58;39.03;;;22.80;;
54909;SDS011;63189;51.240;9.964;2024-03-02T08:37:24;36.40;;;21.38;;
54909;SDS011;63189;51.240;9.964;2024-03-02T08:39:49;38.22;;;21.63;;
54909;SDS011;63189;51.240;9.964;2024-03-02T08:42:15;34.90;;;20.83;;
54909;SDS011;63189;51.240;9.964;2024-03-02T08:44:40;33.30;;;21.33;;
54909;SDS011;63189;51.240;9.964;2024-03-02T08:47:05;32.53;;;20.30;;
54909;SDS011;63189;51.240;9.964;2024-03-02T08:49:31;36.28;;;21.73;;
54909;SDS011;63189;51.240;9.964;2024-03-02T08:51:56;31.17;;;19.02;;
54909;SDS011;63189;51.240;9.964;2024-03-02T08:54:21;32.60;;;19.90;;
54909;SDS011;63189;51.240;9.964;2024-03-02T08:56:48;35.22;;;20.23;;
54909;SDS011;63189;51.240;9.964;2024-03-02T08:59:14;33.58;;;19.92;;
54909;SDS011;63189;51.240;9.964;2024-03-02T09:01:39;32.95;;;19.75;;
54909;SDS011;63189;51.240;9.964;2024-03-02T09:04:06;31.13;;;18.92;;
54909;SDS011;63189;51.240;9.964;2024-03-02T09:06:33;32.20;;;19.17;;
54909;SDS011;63189;51.240;9.964;2024-03-02T09:08:59;30.67;;;19.08;;
54909;SDS011;63189;51.240;9.964;2024-03-02T09:11:24;31.67;;;19.40;;
54909;SDS011;63189;51.240;9.964;2024-03-02T09:13:50;33.45;;;20.80;;
54909;SDS011;63189;51.240;9.964;2024-03-02T09:16:15;32.83;;;19.73;;
54909;SDS011;63189;51.240;9.964;2024-03-02T09:18:40;29.42;;;18.27;;
54909;SDS011;63189;51.240;9.964;2024-03-02T09:21:06;31.55;;;19.67;;
54909;SDS011;63189;51.240;9.964;2024-03-02T09:23:32;29.95;;;18.67;;
54909;SDS011;63189;51.240;9.964;2024-03-02T09:25:58;31.80;;;18.83;;
54909;SDS011;63189;51.240;9.964;2024-03-02T09:28:23;28.63;;;16.95;;
54909;SDS011;63189;51.240;9.964;2024-03-02T09:30:48;32.58;;;18.20;;
54909;SDS011;63189;51.240;9.964;2024-03-02T09:33:14;30.77;;;17.10;;
54909;SDS011;63189;51.240;9.964;2024-03-02T09:35:39;27.67;;;15.95;;
54909;SDS011;63189;51.240;9.964;2024-03-02T09:38:04;29.40;;;17.33;;
54909;SDS011;63189;51.240;9.964;2024-03-02T09:40:30;26.38;;;16.45;;
54909;SDS011;63189;51.240;9.964;2024-03-02T09:42:55;30.10;;;17.08;;
54909;SDS011;63189;51.240;9.964;2024-03-02T09:45:22;29.73;;;17.52;;
54909;SDS011;63189;51.240;9.964;2024-03-02T09:47:49;29.88;;;17.02;;
54909;SDS011;63189;51.240;9.964;2024-03-02T09:50:14;28.40;;;16.27;;
54909;SDS011;63189;51.240;9.964;2024-03-02T09:52:40;27.63;;;15.23;;
54909;SDS011;63189;51.240;9.964;2024-03-02T09:55:07;25.60;;;15.95;;
54909;SDS011;63189;51.240;9.964;2024-03-02T09:57:33;26.10;;;16.17;;
54909;SDS011;63189;51.240;9.964;2024-03-02T09:59:58;23.60;;;15.20;;
54909;SDS011;63189;51.240;9.964;2024-03-02T10:02:24;24.48;;;15.35;;
54909;SDS011;63189;51.240;9.964;2024-03-02T10:04:49;28.67;;;16.40;;
54909;SDS011;63189;51.240;9.964;2024-03-02T10:07:16;27.40;;;16.17;;
54909;SDS011;63189;51.240;9.964;2024-03-02T10:09:43;24.08;;;14.50;;
54909;SDS011;63189;51.240;9.964;2024-03-02T10:12:10;23.90;;;15.32;;
54909;SDS011;63189;51.240;9.964;2024-03-02T10:14:37;24.50;;;14.50;;
54909;SDS011;63189;51.240;9.964;2024-03-02T10:17:03;23.42;;;14.95;;
54909;SDS011;63189;51.240;9.964;2024-03-02T10:19:30;27.50;;;15.80;;
54909;SDS011;63189;51.240;9.964;2024-03-02T10:22:00;23.35;;;14.45;;
54909;SDS011;63189;51.240;9.964;2024-03-02T10:24:27;25.05;;;15.18;;
54909;SDS011;63189;51.240;9.964;2024-03-02T10:26:59;24.73;;;14.50;;
54909;SDS011;63189;51.240;9.964;2024-03-02T10:29:24;22.92;;;14.75;;
54909;SDS011;63189;51.240;9.964;2024-03-02T10:31:53;22.50;;;14.70;;
54909;SDS011;63189;51.240;9.964;2024-03-02T10:34:19;25.13;;;15.75;;
54909;SDS011;63189;51.240;9.964;2024-03-02T10:36:46;22.35;;;13.55;;
54909;SDS011;63189;51.240;9.964;2024-03-02T10:39:12;24.75;;;14.10;;
54909;SDS011;63189;51.240;9.964;2024-03-02T10:41:39;25.02;;;14.80;;
54909;SDS011;63189;51.240;9.964;2024-03-02T10:44:06;22.70;;;13.13;;
54909;SDS011;63189;51.240;9.964;2024-03-02T10:46:33;21.13;;;13.15;;
54909;SDS011;63189;51.240;9.964;2024-03-02T10:49:00;22.70;;;13.27;;
54909;SDS011;63189;51.240;9.964;2024-03-02T10:51:28;19.42;;;12.95;;
54909;SDS011;63189;51.240;9.964;2024-03-02T10:53:56;19.15;;;11.75;;
54909;SDS011;63189;51.240;9.964;2024-03-02T11:02:01;20.50;;;12.93;;
54909;SDS011;63189;51.240;9.964;2024-03-02T11:04:28;20.33;;;12.02;;
54909;SDS011;63189;51.240;9.964;2024-03-02T11:07:06;19.33;;;12.68;;
54909;SDS011;63189;51.240;9.964;2024-03-02T11:09:35;19.73;;;12.48;;
54909;SDS011;63189;51.240;9.964;2024-03-02T11:12:06;20.85;;;12.90;;
54909;SDS011;63189;51.240;9.964;2024-03-02T11:14:40;17.70;;;10.98;;
54909;SDS011;63189;51.240;9.964;2024-03-02T11:17:09;15.32;;;10.27;;
54909;SDS011;63189;51.240;9.964;2024-03-02T11:19:37;16.25;;;10.13;;
54909;SDS011;63189;51.240;9.964;2024-03-02T11:22:04;18.10;;;10.90;;
54909;SDS011;63189;51.240;9.964;2024-03-02T11:24:30;16.25;;;10.50;;
54909;SDS011;63189;51.240;9.964;2024-03-02T11:26:58;12.50;;;7.95;;
54909;SDS011;63189;51.240;9.964;2024-03-02T11:32:05;16.05;;;9.32;;
54909;SDS011;63189;51.240;9.964;2024-03-02T11:34:33;12.77;;;8.20;;
54909;SDS011;63189;51.240;9.964;2024-03-02T11:37:03;15.45;;;10.38;;
54909;SDS011;63189;51.240;9.964;2024-03-02T11:39:29;12.60;;;7.95;;
54909;SDS011;63189;51.240;9.964;2024-03-02T11:41:55;24.98;;;14.98;;
54909;SDS011;63189;51.240;9.964;2024-03-02T11:44:22;11.48;;;7.68;;
54909;SDS011;63189;51.240;9.964;2024-03-02T11:47:00;15.45;;;8.60;;
54909;SDS011;63189;51.240;9.964;2024-03-02T11:52:07;13.65;;;8.45;;
54909;SDS011;63189;51.240;9.964;2024-03-02T11:54:37;16.98;;;9.98;;
54909;SDS011;63189;51.240;9.964;2024-03-02T11:57:23;10.80;;;7.07;;
54909;SDS011;63189;51.240;9.964;2024-03-02T11:59:51;13.73;;;7.35;;
54909;SDS011;63189;51.240;9.964;2024-03-02T12:02:19;11.55;;;7.90;;
54909;SDS011;63189;51.240;9.964;2024-03-02T12:04:46;14.48;;;7.68;;
54909;SDS011;63189;51.240;9.964;2024-03-02T12:07:21;16.02;;;9.30;;
54909;SDS011;63189;51.240;9.964;2024-03-02T12:09:49;12.13;;;7.75;;
54909;SDS011;63189;51.240;9.964;2024-03-02T12:12:23;15.63;;;8.98;;
54909;SDS011;63189;51.240;9.964;2024-03-02T12:14:50;12.15;;;8.35;;
54909;SDS011;63189;51.240;9.964;2024-03-02T12:17:34;13.32;;;8.77;;
54909;SDS011;63189;51.240;9.964;2024-03-02T12:20:10;12.77;;;9.00;;
54909;SDS011;63189;51.240;9.964;2024-03-02T12:23:08;12.70;;;8.38;;
54909;SDS011;63189;51.240;9.964;2024-03-02T12:25:36;14.35;;;9.13;;
54909;SDS011;63189;51.240;9.964;2024-03-02T12:28:12;14.30;;;8.38;;
54909;SDS011;63189;51.240;9.964;2024-03-02T12:30:37;15.15;;;8.90;;
54909;SDS011;63189;51.240;9.964;2024-03-02T12:33:10;12.32;;;8.25;;
54909;SDS011;63189;51.240;9.964;2024-03-02T12:38:11;9.70;;;6.78;;
54909;SDS011;63189;51.240;9.964;2024-03-02T12:41:02;11.57;;;7.68;;
54909;SDS011;63189;51.240;9.964;2024-03-02T12:43:31;10.98;;;7.18;;
54909;SDS011;63189;51.240;9.964;2024-03-02T12:45:56;11.40;;;7.25;;
54909;SDS011;63189;51.240;9.964;2024-03-02T12:48:22;9.48;;;6.50;;
54909;SDS011;63189;51.240;9.964;2024-03-02T12:50:48;10.52;;;7.00;;
54909;SDS011;63189;51.240;9.964;2024-03-02T12:53:14;9.93;;;6.38;;
54909;SDS011;63189;51.240;9.964;2024-03-02T12:55:41;10.48;;;6.72;;
54909;SDS011;63189;51.240;9.964;2024-03-02T12:58:08;12.48;;;7.40;;
54909;SDS011;63189;51.240;9.964;2024-03-02T13:00:33;11.85;;;7.07;;
54909;SDS011;63189;51.240;9.964;2024-03-02T13:03:00;10.82;;;6.78;;
54909;SDS011;63189;51.240;9.964;2024-03-02T13:05:31;9.02;;;6.07;;
54909;SDS011;63189;51.240;9.964;2024-03-02T13:07:58;9.88;;;6.80;;
54909;SDS011;63189;51.240;9.964;2024-03-02T13:10:24;10.95;;;6.68;;
54909;SDS011;63189;51.240;9.964;2024-03-02T13:12:50;10.63;;;6.57;;
54909;SDS011;63189;51.240;9.964;2024-03-02T13:15:15;10.77;;;7.40;;
54909;SDS011;63189;51.240;9.964;2024-03-02T13:17:41;9.75;;;6.47;;
54909;SDS011;63189;51.240;9.964;2024-03-02T13:20:06;8.60;;;4.85;;
54909;SDS011;63189;51.240;9.964;2024-03-02T13:22:35;8.20;;;5.25;;
54909;SDS011;63189;51.240;9.964;2024-03-02T13:25:01;7.85;;;4.88;;
54909;SDS011;63189;51.240;9.964;2024-03-02T13:27:29;8.93;;;5.15;;
54909;SDS011;63189;51.240;9.964;2024-03-02T13:29:55;10.73;;;5.75;;
54909;SDS011;63189;51.240;9.964;2024-03-02T13:32:20;7.28;;;5.22;;
54909;SDS011;63189;51.240;9.964;2024-03-02T13:34:49;8.77;;;5.35;;
54909;SDS011;63189;51.240;9.964;2024-03-02T13:37:14;7.88;;;5.63;;
54909;SDS011;63189;51.240;9.964;2024-03-02T13:39:40;9.60;;;5.60;;
54909;SDS011;63189;51.240;9.964;2024-03-02T13:42:07;9.32;;;5.82;;
54909;SDS011;63189;51.240;9.964;2024-03-02T13:44:33;8.10;;;5.30;;
54909;SDS011;63189;51.240;9.964;2024-03-02T13:47:00;7.55;;;4.90;;
54909;SDS011;63189;51.240;9.964;2024-03-02T13:49:25;9.85;;;5.63;;
54909;SDS011;63189;51.240;9.964;2024-03-02T13:51:59;7.00;;;4.72;;
54909;SDS011;63189;51.240;9.964;2024-03-02T13:54:25;9.13;;;5.05;;
54909;SDS011;63189;51.240;9.964;2024-03-02T13:56:51;7.32;;;4.72;;
54909;SDS011;63189;51.240;9.964;2024-03-02T13:59:17;6.47;;;4.35;;
54909;SDS011;63189;51.240;9.964;2024-03-02T14:01:42;6.10;;;4.13;;
54909;SDS011;63189;51.240;9.964;2024-03-02T14:04:09;6.70;;;3.90;;
54909;SDS011;63189;51.240;9.964;2024-03-02T14:06:34;6.78;;;4.25;;
54909;SDS011;63189;51.240;9.964;2024-03-02T14:09:00;10.07;;;4.88;;
54909;SDS011;63189;51.240;9.964;2024-03-02T14:11:25;6.97;;;4.25;;
54909;SDS011;63189;51.240;9.964;2024-03-02T14:13:51;6.60;;;4.38;;
54909;SDS011;63189;51.240;9.964;2024-03-02T14:16:19;8.07;;;4.75;;
54909;SDS011;63189;51.240;9.964;2024-03-02T14:18:45;8.13;;;4.72;;
54909;SDS011;63189;51.240;9.964;2024-03-02T14:21:10;8.50;;;4.45;;
54909;SDS011;63189;51.240;9.964;2024-03-02T14:23:36;6.78;;;3.88;;
54909;SDS011;63189;51.240;9.964;2024-03-02T14:26:01;5.43;;;3.70;;
54909;SDS011;63189;51.240;9.964;2024-03-02T14:28:26;5.20;;;3.58;;
54909;SDS011;63189;51.240;9.964;2024-03-02T14:30:52;6.38;;;4.00;;
54909;SDS011;63189;51.240;9.964;2024-03-02T14:33:17;5.47;;;3.38;;
54909;SDS011;63189;51.240;9.964;2024-03-02T14:35:44;4.10;;;2.75;;
54909;SDS011;63189;51.240;9.964;2024-03-02T14:38:10;4.25;;;3.08;;
54909;SDS011;63189;51.240;9.964;2024-03-02T14:40:36;4.82;;;3.22;;